sensor_id;sensor_type;location;lat;lon;timestamp;P1;durP1;ratioP1;P2;durP2;ratioP2
6983;SDS011;3532;51.118;7.210;2023-08-31T00:02:24;4.20;;;3.70;;
6983;SDS011;3532;51.118;7.210;2023-08-31T00:04:52;4.17;;;3.80;;
6983;SDS011;3532;51.118;7.210;2023-08-31T00:07:18;4.07;;;3.63;;
6983;SDS011;3532;51.118;7.210;2023-08-31T00:09:44;4.23;;;3.73;;
6983;SDS011;3532;51.118;7.210;2023-08-31T00:12:10;4.40;;;4.03;;
6983;SDS011;3532;51.118;7.210;2023-08-31T00:14:36;6.70;;;4.43;;
6983;SDS011;3532;51.118;7.210;2023-08-31T00:17:02;5.27;;;3.80;;
6983;SDS011;3532;51.118;7.210;2023-08-31T00:19:28;3.83;;;2.97;;
6983;SDS011;3532;51.118;7.210;2023-08-31T00:21:54;3.90;;;3.43;;
6983;SDS011;3532;51.118;7.210;2023-08-31T00:24:20;3.03;;;2.83;;
6983;SDS011;3532;51.118;7.210;2023-08-31T00:26:47;3.67;;;3.17;;
6983;SDS011;3532;51.118;7.210;2023-08-31T00:29:13;5.10;;;3.67;;
6983;SDS011;3532;51.118;7.210;2023-08-31T00:31:41;6.30;;;3.53;;
6983;SDS011;3532;51.118;7.210;2023-08-31T00:34:10;3.50;;;3.20;;
6983;SDS011;3532;51.118;7.210;2023-08-31T00:36:39;4.47;;;4.07;;
6983;SDS011;3532;51.118;7.210;2023-08-31T00:39:05;8.03;;;4.20;;
6983;SDS011;3532;51.118;7.210;2023-08-31T00:41:31;5.67;;;3.90;;
6983;SDS011;3532;51.118;7.210;2023-08-31T00:43:57;7.10;;;4.87;;
6983;SDS011;3532;51.118;7.210;2023-08-31T00:46:23;8.30;;;4.53;;
6983;SDS011;3532;51.118;7.210;2023-08-31T00:48:48;6.97;;;4.43;;
6983;SDS011;3532;51.118;7.210;2023-08-31T00:51:14;6.70;;;4.57;;
6983;SDS011;3532;51.118;7.210;2023-08-31T00:53:39;7.13;;;4.27;;
6983;SDS011;3532;51.118;7.210;2023-08-31T00:56:05;5.73;;;4.87;;
6983;SDS011;3532;51.118;7.210;2023-08-31T00:58:30;5.03;;;4.50;;
6983;SDS011;3532;51.118;7.210;2023-08-31T01:06:00;4.70;;;4.30;;
6983;SDS011;3532;51.118;7.210;2023-08-31T01:11:28;7.27;;;4.73;;
6983;SDS011;3532;51.118;7.210;2023-08-31T01:14:09;6.20;;;5.60;;
6983;SDS011;3532;51.118;7.210;2023-08-31T01:16:36;6.80;;;5.03;;
6983;SDS011;3532;51.118;7.210;2023-08-31T01:19:06;12.00;;;6.20;;
6983;SDS011;3532;51.118;7.210;2023-08-31T01:21:38;10.00;;;5.37;;
6983;SDS011;3532;51.118;7.210;2023-08-31T01:24:05;9.13;;;5.60;;
6983;SDS011;3532;51.118;7.210;2023-08-31T01:26:31;7.67;;;6.10;;
6983;SDS011;3532;51.118;7.210;2023-08-31T01:28:56;5.70;;;5.07;;
6983;SDS011;3532;51.118;7.210;2023-08-31T01:31:22;6.13;;;4.77;;
6983;SDS011;3532;51.118;7.210;2023-08-31T01:33:48;7.20;;;5.17;;
6983;SDS011;3532;51.118;7.210;2023-08-31T01:38:58;5.70;;;5.10;;
6983;SDS011;3532;51.118;7.210;2023-08-31T01:41:28;7.97;;;5.80;;
6983;SDS011;3532;51.118;7.210;2023-08-31T01:43:54;6.37;;;5.77;;
6983;SDS011;3532;51.118;7.210;2023-08-31T01:46:19;6.17;;;4.93;;
6983;SDS011;3532;51.118;7.210;2023-08-31T01:48:45;7.40;;;5.70;;
6983;SDS011;3532;51.118;7.210;2023-08-31T01:51:10;5.70;;;4.97;;
6983;SDS011;3532;51.118;7.210;2023-08-31T01:53:35;5.97;;;5.10;;
6983;SDS011;3532;51.118;7.210;2023-08-31T01:56:01;7.00;;;6.30;;
6983;SDS011;3532;51.118;7.210;2023-08-31T01:58:27;8.23;;;6.37;;
6983;SDS011;3532;51.118;7.210;2023-08-31T02:00:52;5.73;;;5.30;;
6983;SDS011;3532;51.118;7.210;2023-08-31T02:03:18;8.57;;;6.03;;
6983;SDS011;3532;51.118;7.210;2023-08-31T02:05:43;7.90;;;6.03;;
6983;SDS011;3532;51.118;7.210;2023-08-31T02:08:08;7.20;;;5.43;;
6983;SDS011;3532;51.118;7.210;2023-08-31T02:10:33;8.20;;;5.87;;
6983;SDS011;3532;51.118;7.210;2023-08-31T02:12:59;9.30;;;5.70;;
6983;SDS011;3532;51.118;7.210;2023-08-31T02:15:25;5.97;;;4.93;;
6983;SDS011;3532;51.118;7.210;2023-08-31T02:17:50;7.70;;;5.57;;
6983;SDS011;3532;51.118;7.210;2023-08-31T02:20:15;7.17;;;5.50;;
6983;SDS011;3532;51.118;7.210;2023-08-31T02:22:41;5.83;;;4.97;;
6983;SDS011;3532;51.118;7.210;2023-08-31T02:25:06;6.17;;;5.43;;
6983;SDS011;3532;51.118;7.210;2023-08-31T02:27:32;5.40;;;4.90;;
6983;SDS011;3532;51.118;7.210;2023-08-31T02:29:57;8.50;;;5.60;;
6983;SDS011;3532;51.118;7.210;2023-08-31T02:32:22;6.27;;;5.00;;
6983;SDS011;3532;51.118;7.210;2023-08-31T02:34:48;8.80;;;6.53;;
6983;SDS011;3532;51.118;7.210;2023-08-31T02:37:14;5.80;;;5.20;;
6983;SDS011;3532;51.118;7.210;2023-08-31T02:39:39;6.03;;;5.40;;
6983;SDS011;3532;51.118;7.210;2023-08-31T02:42:05;6.17;;;5.40;;
6983;SDS011;3532;51.118;7.210;2023-08-31T02:44:31;7.50;;;5.60;;
6983;SDS011;3532;51.118;7.210;2023-08-31T02:46:56;6.97;;;5.27;;
6983;SDS011;3532;51.118;7.210;2023-08-31T02:49:22;6.57;;;5.97;;
6983;SDS011;3532;51.118;7.210;2023-08-31T02:51:47;8.57;;;6.23;;
6983;SDS011;3532;51.118;7.210;2023-08-31T02:54:14;12.70;;;6.90;;
6983;SDS011;3532;51.118;7.210;2023-08-31T02:56:39;6.30;;;5.70;;
6983;SDS011;3532;51.118;7.210;2023-08-31T02:59:05;7.97;;;6.17;;
6983;SDS011;3532;51.118;7.210;2023-08-31T03:01:30;7.87;;;6.23;;
6983;SDS011;3532;51.118;7.210;2023-08-31T03:03:55;8.07;;;5.90;;
6983;SDS011;3532;51.118;7.210;2023-08-31T03:06:21;6.83;;;6.03;;
6983;SDS011;3532;51.118;7.210;2023-08-31T03:08:46;7.80;;;5.90;;
6983;SDS011;3532;51.118;7.210;2023-08-31T03:11:11;6.53;;;5.43;;
6983;SDS011;3532;51.118;7.210;2023-08-31T03:13:39;7.93;;;5.77;;
6983;SDS011;3532;51.118;7.210;2023-08-31T03:16:04;10.43;;;6.13;;
6983;SDS011;3532;51.118;7.210;2023-08-31T03:18:29;7.10;;;6.20;;
6983;SDS011;3532;51.118;7.210;2023-08-31T03:20:55;7.43;;;6.00;;
6983;SDS011;3532;51.118;7.210;2023-08-31T03:23:21;7.10;;;6.33;;
6983;SDS011;3532;51.118;7.210;2023-08-31T03:25:46;6.93;;;5.80;;
6983;SDS011;3532;51.118;7.210;2023-08-31T03:28:12;6.83;;;5.83;;
6983;SDS011;3532;51.118;7.210;2023-08-31T03:30:37;6.57;;;5.97;;
6983;SDS011;3532;51.118;7.210;2023-08-31T03:33:02;7.50;;;6.63;;
6983;SDS011;3532;51.118;7.210;2023-08-31T03:35:28;7.97;;;6.50;;
6983;SDS011;3532;51.118;7.210;2023-08-31T03:37:54;7.77;;;6.20;;
6983;SDS011;3532;51.118;7.210;2023-08-31T03:40:20;6.13;;;5.37;;
6983;SDS011;3532;51.118;7.210;2023-08-31T03:42:45;5.87;;;4.93;;
6983;SDS011;3532;51.118;7.210;2023-08-31T03:45:10;7.40;;;5.23;;
6983;SDS011;3532;51.118;7.210;2023-08-31T03:47:36;8.47;;;6.23;;
6983;SDS011;3532;51.118;7.210;2023-08-31T03:50:01;6.37;;;5.23;;
6983;SDS011;3532;51.118;7.210;2023-08-31T03:52:27;6.73;;;5.67;;
6983;SDS011;3532;51.118;7.210;2023-08-31T03:54:52;10.27;;;5.73;;
6983;SDS011;3532;51.118;7.210;2023-08-31T03:57:17;8.40;;;5.83;;
6983;SDS011;3532;51.118;7.210;2023-08-31T03:59:43;5.90;;;5.30;;
6983;SDS011;3532;51.118;7.210;2023-08-31T04:02:08;8.67;;;6.27;;
6983;SDS011;3532;51.118;7.210;2023-08-31T04:04:33;10.63;;;6.10;;
6983;SDS011;3532;51.118;7.210;2023-08-31T04:06:59;6.20;;;5.60;;
6983;SDS011;3532;51.118;7.210;2023-08-31T04:09:24;11.53;;;6.03;;
6983;SDS011;3532;51.118;7.210;2023-08-31T04:11:50;7.60;;;5.23;;
6983;SDS011;3532;51.118;7.210;2023-08-31T04:14:15;6.40;;;5.23;;
6983;SDS011;3532;51.118;7.210;2023-08-31T04:16:42;8.00;;;6.07;;
6983;SDS011;3532;51.118;7.210;2023-08-31T04:19:07;8.63;;;6.00;;
6983;SDS011;3532;51.118;7.210;2023-08-31T04:21:33;5.90;;;5.40;;
6983;SDS011;3532;51.118;7.210;2023-08-31T04:23:58;6.90;;;5.33;;
6983;SDS011;3532;51.118;7.210;2023-08-31T04:26:25;7.43;;;5.87;;
6983;SDS011;3532;51.118;7.210;2023-08-31T04:28:50;6.50;;;5.13;;
6983;SDS011;3532;51.118;7.210;2023-08-31T04:31:15;6.33;;;4.90;;
6983;SDS011;3532;51.118;7.210;2023-08-31T04:33:41;6.33;;;5.63;;
6983;SDS011;3532;51.118;7.210;2023-08-31T04:36:06;9.57;;;5.93;;
6983;SDS011;3532;51.118;7.210;2023-08-31T04:38:32;5.63;;;5.13;;
6983;SDS011;3532;51.118;7.210;2023-08-31T04:40:58;9.03;;;5.90;;
6983;SDS011;3532;51.118;7.210;2023-08-31T04:43:25;7.67;;;5.40;;
6983;SDS011;3532;51.118;7.210;2023-08-31T04:45:53;5.50;;;5.03;;
6983;SDS011;3532;51.118;7.210;2023-08-31T04:48:19;6.43;;;5.43;;
6983;SDS011;3532;51.118;7.210;2023-08-31T04:50:44;7.13;;;5.67;;
6983;SDS011;3532;51.118;7.210;2023-08-31T04:53:09;7.57;;;5.47;;
6983;SDS011;3532;51.118;7.210;2023-08-31T04:55:35;8.33;;;5.57;;
6983;SDS011;3532;51.118;7.210;2023-08-31T04:58:00;8.93;;;6.23;;
6983;SDS011;3532;51.118;7.210;2023-08-31T05:00:25;7.50;;;5.63;;
6983;SDS011;3532;51.118;7.210;2023-08-31T05:02:51;6.77;;;6.07;;
6983;SDS011;3532;51.118;7.210;2023-08-31T05:05:16;7.90;;;5.87;;
6983;SDS011;3532;51.118;7.210;2023-08-31T05:07:43;7.67;;;5.70;;
6983;SDS011;3532;51.118;7.210;2023-08-31T05:10:09;16.87;;;6.97;;
6983;SDS011;3532;51.118;7.210;2023-08-31T05:12:34;7.63;;;6.30;;
6983;SDS011;3532;51.118;7.210;2023-08-31T05:15:00;9.80;;;6.47;;
6983;SDS011;3532;51.118;7.210;2023-08-31T05:17:25;9.00;;;5.47;;
6983;SDS011;3532;51.118;7.210;2023-08-31T05:19:50;8.13;;;6.87;;
6983;SDS011;3532;51.118;7.210;2023-08-31T05:22:16;7.37;;;6.67;;
6983;SDS011;3532;51.118;7.210;2023-08-31T05:24:41;6.73;;;6.03;;
6983;SDS011;3532;51.118;7.210;2023-08-31T05:27:07;7.87;;;6.60;;
6983;SDS011;3532;51.118;7.210;2023-08-31T05:29:32;8.03;;;5.80;;
6983;SDS011;3532;51.118;7.210;2023-08-31T05:31:57;7.60;;;5.93;;
6983;SDS011;3532;51.118;7.210;2023-08-31T05:34:24;6.60;;;5.80;;
6983;SDS011;3532;51.118;7.210;2023-08-31T05:36:49;7.33;;;6.50;;
6983;SDS011;3532;51.118;7.210;2023-08-31T05:39:15;7.10;;;6.10;;
6983;SDS011;3532;51.118;7.210;2023-08-31T05:41:41;8.03;;;5.57;;
6983;SDS011;3532;51.118;7.210;2023-08-31T05:44:07;7.20;;;6.43;;
6983;SDS011;3532;51.118;7.210;2023-08-31T05:46:33;7.30;;;5.83;;
6983;SDS011;3532;51.118;7.210;2023-08-31T05:48:58;8.03;;;6.43;;
6983;SDS011;3532;51.118;7.210;2023-08-31T05:51:24;6.40;;;5.80;;
6983;SDS011;3532;51.118;7.210;2023-08-31T05:53:49;7.57;;;6.30;;
6983;SDS011;3532;51.118;7.210;2023-08-31T05:56:14;7.17;;;6.40;;
6983;SDS011;3532;51.118;7.210;2023-08-31T05:58:40;6.87;;;6.17;;
6983;SDS011;3532;51.118;7.210;2023-08-31T06:01:05;7.47;;;6.13;;
6983;SDS011;3532;51.118;7.210;2023-08-31T06:03:31;6.70;;;6.10;;
6983;SDS011;3532;51.118;7.210;2023-08-31T06:05:57;7.00;;;6.13;;
6983;SDS011;3532;51.118;7.210;2023-08-31T06:08:22;7.20;;;5.97;;
6983;SDS011;3532;51.118;7.210;2023-08-31T06:10:48;7.67;;;5.53;;
6983;SDS011;3532;51.118;7.210;2023-08-31T06:13:13;6.80;;;6.20;;
6983;SDS011;3532;51.118;7.210;2023-08-31T06:15:38;7.23;;;6.33;;
6983;SDS011;3532;51.118;7.210;2023-08-31T06:18:04;10.60;;;5.20;;
6983;SDS011;3532;51.118;7.210;2023-08-31T06:20:30;6.03;;;5.53;;
6983;SDS011;3532;51.118;7.210;2023-08-31T06:22:55;10.50;;;5.77;;
6983;SDS011;3532;51.118;7.210;2023-08-31T06:25:20;7.63;;;6.30;;
6983;SDS011;3532;51.118;7.210;2023-08-31T06:27:47;6.67;;;5.97;;
6983;SDS011;3532;51.118;7.210;2023-08-31T06:30:13;6.50;;;5.37;;
6983;SDS011;3532;51.118;7.210;2023-08-31T06:32:42;11.50;;;5.60;;
6983;SDS011;3532;51.118;7.210;2023-08-31T06:35:08;9.00;;;5.90;;
6983;SDS011;3532;51.118;7.210;2023-08-31T06:37:33;9.37;;;5.60;;
6983;SDS011;3532;51.118;7.210;2023-08-31T06:39:59;6.83;;;6.13;;
6983;SDS011;3532;51.118;7.210;2023-08-31T06:42:24;7.50;;;5.37;;
6983;SDS011;3532;51.118;7.210;2023-08-31T06:44:49;5.90;;;5.30;;
6983;SDS011;3532;51.118;7.210;2023-08-31T06:47:15;6.60;;;5.83;;
6983;SDS011;3532;51.118;7.210;2023-08-31T06:49:42;7.93;;;5.80;;
6983;SDS011;3532;51.118;7.210;2023-08-31T06:52:07;7.23;;;5.63;;
6983;SDS011;3532;51.118;7.210;2023-08-31T06:54:33;8.63;;;5.73;;
6983;SDS011;3532;51.118;7.210;2023-08-31T06:56:58;6.97;;;6.10;;
6983;SDS011;3532;51.118;7.210;2023-08-31T06:59:24;7.73;;;5.70;;
6983;SDS011;3532;51.118;7.210;2023-08-31T07:01:49;10.50;;;5.90;;
6983;SDS011;3532;51.118;7.210;2023-08-31T07:04:15;8.10;;;5.87;;
6983;SDS011;3532;51.118;7.210;2023-08-31T07:06:40;9.23;;;6.10;;
6983;SDS011;3532;51.118;7.210;2023-08-31T07:09:05;6.07;;;5.47;;
6983;SDS011;3532;51.118;7.210;2023-08-31T07:11:33;7.60;;;6.53;;
6983;SDS011;3532;51.118;7.210;2023-08-31T07:13:58;9.00;;;6.50;;
6983;SDS011;3532;51.118;7.210;2023-08-31T07:16:24;7.63;;;6.00;;
6983;SDS011;3532;51.118;7.210;2023-08-31T07:18:49;9.87;;;6.07;;
6983;SDS011;3532;51.118;7.210;2023-08-31T07:21:15;6.47;;;5.80;;
6983;SDS011;3532;51.118;7.210;2023-08-31T07:23:40;6.60;;;6.00;;
6983;SDS011;3532;51.118;7.210;2023-08-31T07:26:05;8.60;;;5.70;;
6983;SDS011;3532;51.118;7.210;2023-08-31T07:28:31;7.93;;;6.00;;
6983;SDS011;3532;51.118;7.210;2023-08-31T07:31:03;6.63;;;5.87;;
6983;SDS011;3532;51.118;7.210;2023-08-31T07:33:29;6.70;;;5.60;;
6983;SDS011;3532;51.118;7.210;2023-08-31T07:35:56;8.97;;;7.37;;
6983;SDS011;3532;51.118;7.210;2023-08-31T07:38:22;7.63;;;6.50;;
6983;SDS011;3532;51.118;7.210;2023-08-31T07:40:47;7.50;;;6.07;;
6983;SDS011;3532;51.118;7.210;2023-08-31T07:43:13;8.77;;;6.63;;
6983;SDS011;3532;51.118;7.210;2023-08-31T07:45:38;7.77;;;6.83;;
6983;SDS011;3532;51.118;7.210;2023-08-31T07:48:04;8.13;;;7.30;;
6983;SDS011;3532;51.118;7.210;2023-08-31T07:50:30;8.00;;;7.20;;
6983;SDS011;3532;51.118;7.210;2023-08-31T07:52:56;9.13;;;5.77;;
6983;SDS011;3532;51.118;7.210;2023-08-31T07:55:21;10.03;;;6.77;;
6983;SDS011;3532;51.118;7.210;2023-08-31T07:57:46;7.00;;;5.83;;
6983;SDS011;3532;51.118;7.210;2023-08-31T08:00:12;5.93;;;5.40;;
6983;SDS011;3532;51.118;7.210;2023-08-31T08:02:39;9.53;;;6.17;;
6983;SDS011;3532;51.118;7.210;2023-08-31T08:05:05;11.73;;;6.23;;
6983;SDS011;3532;51.118;7.210;2023-08-31T08:07:31;7.77;;;5.73;;
6983;SDS011;3532;51.118;7.210;2023-08-31T08:09:56;6.63;;;4.77;;
6983;SDS011;3532;51.118;7.210;2023-08-31T08:12:21;7.90;;;5.63;;
6983;SDS011;3532;51.118;7.210;2023-08-31T08:14:47;7.00;;;6.03;;
6983;SDS011;3532;51.118;7.210;2023-08-31T08:17:12;7.17;;;6.40;;
6983;SDS011;3532;51.118;7.210;2023-08-31T08:19:37;9.43;;;6.80;;
6983;SDS011;3532;51.118;7.210;2023-08-31T08:22:02;7.30;;;6.20;;
6983;SDS011;3532;51.118;7.210;2023-08-31T08:24:28;6.87;;;6.17;;
6983;SDS011;3532;51.118;7.210;2023-08-31T08:26:54;7.93;;;5.77;;
6983;SDS011;3532;51.118;7.210;2023-08-31T08:29:19;6.23;;;5.03;;
6983;SDS011;3532;51.118;7.210;2023-08-31T08:31:44;7.93;;;4.93;;
6983;SDS011;3532;51.118;7.210;2023-08-31T08:34:10;8.60;;;4.70;;
6983;SDS011;3532;51.118;7.210;2023-08-31T08:36:35;7.20;;;5.23;;
6983;SDS011;3532;51.118;7.210;2023-08-31T08:39:00;5.43;;;4.53;;
6983;SDS011;3532;51.118;7.210;2023-08-31T08:41:26;5.17;;;4.67;;
6983;SDS011;3532;51.118;7.210;2023-08-31T08:43:53;4.73;;;4.17;;
6983;SDS011;3532;51.118;7.210;2023-08-31T08:46:21;7.90;;;4.60;;
6983;SDS011;3532;51.118;7.210;2023-08-31T08:48:47;5.70;;;5.00;;
6983;SDS011;3532;51.118;7.210;2023-08-31T08:51:13;6.13;;;4.17;;
6983;SDS011;3532;51.118;7.210;2023-08-31T08:53:40;5.23;;;4.23;;
6983;SDS011;3532;51.118;7.210;2023-08-31T08:56:07;5.37;;;4.60;;
6983;SDS011;3532;51.118;7.210;2023-08-31T08:58:33;6.93;;;4.23;;
6983;SDS011;3532;51.118;7.210;2023-08-31T09:00:58;4.47;;;3.97;;
6983;SDS011;3532;51.118;7.210;2023-08-31T09:03:24;6.10;;;4.20;;
6983;SDS011;3532;51.118;7.210;2023-08-31T09:05:50;5.93;;;4.07;;
6983;SDS011;3532;51.118;7.210;2023-08-31T09:08:17;5.93;;;4.10;;
6983;SDS011;3532;51.118;7.210;2023-08-31T09:10:43;7.07;;;3.67;;
6983;SDS011;3532;51.118;7.210;2023-08-31T09:13:13;5.33;;;4.10;;
6983;SDS011;3532;51.118;7.210;2023-08-31T09:15:43;4.97;;;3.90;;
6983;SDS011;3532;51.118;7.210;2023-08-31T09:18:29;5.00;;;4.10;;
6983;SDS011;3532;51.118;7.210;2023-08-31T09:20:57;7.33;;;4.70;;
6983;SDS011;3532;51.118;7.210;2023-08-31T09:23:23;7.67;;;4.17;;
6983;SDS011;3532;51.118;7.210;2023-08-31T09:25:52;4.90;;;4.03;;
6983;SDS011;3532;51.118;7.210;2023-08-31T09:28:22;7.37;;;4.30;;
6983;SDS011;3532;51.118;7.210;2023-08-31T09:30:48;4.20;;;3.57;;
6983;SDS011;3532;51.118;7.210;2023-08-31T09:33:15;6.60;;;3.63;;
6983;SDS011;3532;51.118;7.210;2023-08-31T09:35:52;4.17;;;3.77;;
6983;SDS011;3532;51.118;7.210;2023-08-31T09:38:18;4.60;;;3.80;;
6983;SDS011;3532;51.118;7.210;2023-08-31T09:40:44;4.40;;;3.17;;
6983;SDS011;3532;51.118;7.210;2023-08-31T09:43:10;8.37;;;4.03;;
6983;SDS011;3532;51.118;7.210;2023-08-31T09:45:35;6.40;;;4.10;;
6983;SDS011;3532;51.118;7.210;2023-08-31T09:48:02;3.67;;;3.33;;
6983;SDS011;3532;51.118;7.210;2023-08-31T09:50:29;5.97;;;3.80;;
6983;SDS011;3532;51.118;7.210;2023-08-31T09:53:00;7.07;;;3.57;;
6983;SDS011;3532;51.118;7.210;2023-08-31T09:55:27;4.13;;;3.10;;
6983;SDS011;3532;51.118;7.210;2023-08-31T09:57:54;7.23;;;3.10;;
6983;SDS011;3532;51.118;7.210;2023-08-31T10:00:21;5.10;;;3.30;;
6983;SDS011;3532;51.118;7.210;2023-08-31T10:02:47;2.97;;;2.67;;
6983;SDS011;3532;51.118;7.210;2023-08-31T10:05:13;6.93;;;3.10;;
6983;SDS011;3532;51.118;7.210;2023-08-31T10:07:39;7.13;;;3.20;;
6983;SDS011;3532;51.118;7.210;2023-08-31T10:10:05;2.97;;;2.67;;
6983;SDS011;3532;51.118;7.210;2023-08-31T10:12:31;4.57;;;2.80;;
6983;SDS011;3532;51.118;7.210;2023-08-31T10:14:57;6.80;;;2.70;;
6983;SDS011;3532;51.118;7.210;2023-08-31T10:17:23;3.80;;;2.77;;
6983;SDS011;3532;51.118;7.210;2023-08-31T10:19:50;3.80;;;2.70;;
6983;SDS011;3532;51.118;7.210;2023-08-31T10:22:16;4.67;;;2.83;;
6983;SDS011;3532;51.118;7.210;2023-08-31T10:25:03;3.70;;;2.77;;
6983;SDS011;3532;51.118;7.210;2023-08-31T10:27:29;2.33;;;2.13;;
6983;SDS011;3532;51.118;7.210;2023-08-31T10:35:41;5.40;;;2.60;;
6983;SDS011;3532;51.118;7.210;2023-08-31T10:38:17;3.73;;;2.43;;
6983;SDS011;3532;51.118;7.210;2023-08-31T10:43:44;2.60;;;2.40;;
6983;SDS011;3532;51.118;7.210;2023-08-31T10:46:17;6.47;;;2.80;;
6983;SDS011;3532;51.118;7.210;2023-08-31T10:48:50;2.93;;;2.63;;
6983;SDS011;3532;51.118;7.210;2023-08-31T10:51:33;5.37;;;2.60;;
6983;SDS011;3532;51.118;7.210;2023-08-31T10:54:06;4.10;;;2.53;;
6983;SDS011;3532;51.118;7.210;2023-08-31T10:59:43;4.47;;;3.10;;
6983;SDS011;3532;51.118;7.210;2023-08-31T11:02:08;3.30;;;3.07;;
6983;SDS011;3532;51.118;7.210;2023-08-31T11:07:19;3.20;;;2.80;;
6983;SDS011;3532;51.118;7.210;2023-08-31T11:09:48;4.63;;;3.30;;
6983;SDS011;3532;51.118;7.210;2023-08-31T11:12:14;6.07;;;2.67;;
6983;SDS011;3532;51.118;7.210;2023-08-31T11:14:39;4.17;;;3.13;;
6983;SDS011;3532;51.118;7.210;2023-08-31T11:17:05;3.37;;;2.60;;
6983;SDS011;3532;51.118;7.210;2023-08-31T11:19:31;4.13;;;2.90;;
6983;SDS011;3532;51.118;7.210;2023-08-31T11:21:57;3.30;;;2.60;;
6983;SDS011;3532;51.118;7.210;2023-08-31T11:24:24;2.87;;;2.60;;
6983;SDS011;3532;51.118;7.210;2023-08-31T11:26:55;2.97;;;2.57;;
6983;SDS011;3532;51.118;7.210;2023-08-31T11:29:20;2.97;;;2.73;;
6983;SDS011;3532;51.118;7.210;2023-08-31T11:31:46;5.07;;;2.77;;
6983;SDS011;3532;51.118;7.210;2023-08-31T11:34:12;5.03;;;2.50;;
6983;SDS011;3532;51.118;7.210;2023-08-31T11:36:38;2.77;;;2.43;;
6983;SDS011;3532;51.118;7.210;2023-08-31T11:39:04;6.73;;;2.70;;
6983;SDS011;3532;51.118;7.210;2023-08-31T11:41:32;5.40;;;2.63;;
6983;SDS011;3532;51.118;7.210;2023-08-31T11:43:58;4.13;;;2.63;;
6983;SDS011;3532;51.118;7.210;2023-08-31T11:46:24;2.87;;;2.50;;
6983;SDS011;3532;51.118;7.210;2023-08-31T11:48:50;3.60;;;3.17;;
6983;SDS011;3532;51.118;7.210;2023-08-31T11:51:15;3.40;;;3.00;;
6983;SDS011;3532;51.118;7.210;2023-08-31T11:53:40;3.73;;;3.20;;
6983;SDS011;3532;51.118;7.210;2023-08-31T11:56:06;6.57;;;3.13;;
6983;SDS011;3532;51.118;7.210;2023-08-31T11:58:32;3.20;;;2.90;;
6983;SDS011;3532;51.118;7.210;2023-08-31T12:00:57;3.53;;;2.57;;
6983;SDS011;3532;51.118;7.210;2023-08-31T12:03:24;5.67;;;2.73;;
6983;SDS011;3532;51.118;7.210;2023-08-31T12:05:51;2.80;;;2.37;;
6983;SDS011;3532;51.118;7.210;2023-08-31T12:08:23;7.37;;;2.90;;
6983;SDS011;3532;51.118;7.210;2023-08-31T12:10:50;4.57;;;3.13;;
6983;SDS011;3532;51.118;7.210;2023-08-31T12:13:15;4.57;;;2.67;;
6983;SDS011;3532;51.118;7.210;2023-08-31T12:15:40;3.63;;;2.43;;
6983;SDS011;3532;51.118;7.210;2023-08-31T12:18:12;6.30;;;2.80;;
6983;SDS011;3532;51.118;7.210;2023-08-31T12:20:45;3.67;;;2.70;;
6983;SDS011;3532;51.118;7.210;2023-08-31T12:23:11;3.17;;;2.60;;
6983;SDS011;3532;51.118;7.210;2023-08-31T12:25:36;3.30;;;2.50;;
6983;SDS011;3532;51.118;7.210;2023-08-31T12:28:02;4.93;;;2.90;;
6983;SDS011;3532;51.118;7.210;2023-08-31T12:30:28;4.27;;;2.80;;
6983;SDS011;3532;51.118;7.210;2023-08-31T12:32:53;3.90;;;2.93;;
6983;SDS011;3532;51.118;7.210;2023-08-31T12:35:19;5.27;;;2.90;;
6983;SDS011;3532;51.118;7.210;2023-08-31T12:37:44;3.93;;;2.47;;
6983;SDS011;3532;51.118;7.210;2023-08-31T12:40:09;6.10;;;3.17;;
6983;SDS011;3532;51.118;7.210;2023-08-31T12:42:35;3.50;;;2.77;;
6983;SDS011;3532;51.118;7.210;2023-08-31T12:45:01;3.77;;;2.87;;
6983;SDS011;3532;51.118;7.210;2023-08-31T12:47:26;3.53;;;2.70;;
6983;SDS011;3532;51.118;7.210;2023-08-31T12:49:52;3.77;;;2.57;;
6983;SDS011;3532;51.118;7.210;2023-08-31T12:52:17;8.27;;;2.60;;
6983;SDS011;3532;51.118;7.210;2023-08-31T12:54:42;4.53;;;2.87;;
6983;SDS011;3532;51.118;7.210;2023-08-31T12:57:07;3.47;;;2.40;;
6983;SDS011;3532;51.118;7.210;2023-08-31T12:59:33;3.87;;;2.67;;
6983;SDS011;3532;51.118;7.210;2023-08-31T13:01:58;3.40;;;2.20;;
6983;SDS011;3532;51.118;7.210;2023-08-31T13:04:23;3.20;;;2.10;;
6983;SDS011;3532;51.118;7.210;2023-08-31T13:06:49;6.47;;;3.43;;
6983;SDS011;3532;51.118;7.210;2023-08-31T13:09:14;4.53;;;2.90;;
6983;SDS011;3532;51.118;7.210;2023-08-31T13:11:40;5.07;;;3.30;;
6983;SDS011;3532;51.118;7.210;2023-08-31T13:14:05;4.17;;;3.07;;
6983;SDS011;3532;51.118;7.210;2023-08-31T13:16:31;5.43;;;2.97;;
6983;SDS011;3532;51.118;7.210;2023-08-31T13:18:57;4.90;;;2.97;;
6983;SDS011;3532;51.118;7.210;2023-08-31T13:21:22;6.17;;;2.63;;
6983;SDS011;3532;51.118;7.210;2023-08-31T13:23:48;4.80;;;2.87;;
6983;SDS011;3532;51.118;7.210;2023-08-31T13:26:13;3.97;;;2.50;;
6983;SDS011;3532;51.118;7.210;2023-08-31T13:28:38;2.97;;;2.20;;
6983;SDS011;3532;51.118;7.210;2023-08-31T13:31:04;4.63;;;2.50;;
6983;SDS011;3532;51.118;7.210;2023-08-31T13:33:29;3.77;;;2.37;;
6983;SDS011;3532;51.118;7.210;2023-08-31T13:35:58;4.63;;;2.60;;
6983;SDS011;3532;51.118;7.210;2023-08-31T13:38:24;4.97;;;2.40;;
6983;SDS011;3532;51.118;7.210;2023-08-31T13:40:53;5.57;;;2.83;;
6983;SDS011;3532;51.118;7.210;2023-08-31T13:43:19;4.53;;;2.50;;
6983;SDS011;3532;51.118;7.210;2023-08-31T13:45:45;4.47;;;2.23;;
6983;SDS011;3532;51.118;7.210;2023-08-31T13:48:10;2.90;;;2.50;;
6983;SDS011;3532;51.118;7.210;2023-08-31T13:50:35;3.63;;;2.30;;
6983;SDS011;3532;51.118;7.210;2023-08-31T13:53:02;3.83;;;2.80;;
6983;SDS011;3532;51.118;7.210;2023-08-31T13:55:28;5.27;;;2.87;;
6983;SDS011;3532;51.118;7.210;2023-08-31T13:57:53;10.93;;;3.07;;
6983;SDS011;3532;51.118;7.210;2023-08-31T14:00:19;5.50;;;2.73;;
6983;SDS011;3532;51.118;7.210;2023-08-31T14:02:44;3.57;;;3.00;;
6983;SDS011;3532;51.118;7.210;2023-08-31T14:05:10;5.87;;;3.37;;
6983;SDS011;3532;51.118;7.210;2023-08-31T14:07:36;3.93;;;3.07;;
6983;SDS011;3532;51.118;7.210;2023-08-31T14:10:02;4.57;;;3.13;;
6983;SDS011;3532;51.118;7.210;2023-08-31T14:12:30;5.93;;;3.03;;
6983;SDS011;3532;51.118;7.210;2023-08-31T14:14:56;3.70;;;2.83;;
6983;SDS011;3532;51.118;7.210;2023-08-31T14:17:22;3.60;;;3.30;;
6983;SDS011;3532;51.118;7.210;2023-08-31T14:19:48;4.63;;;2.70;;
6983;SDS011;3532;51.118;7.210;2023-08-31T14:22:14;3.97;;;3.10;;
6983;SDS011;3532;51.118;7.210;2023-08-31T14:24:40;6.17;;;3.17;;
6983;SDS011;3532;51.118;7.210;2023-08-31T14:27:05;3.37;;;2.67;;
6983;SDS011;3532;51.118;7.210;2023-08-31T14:29:31;6.60;;;3.23;;
6983;SDS011;3532;51.118;7.210;2023-08-31T14:31:57;3.87;;;2.90;;
6983;SDS011;3532;51.118;7.210;2023-08-31T14:34:22;3.07;;;2.60;;
6983;SDS011;3532;51.118;7.210;2023-08-31T14:36:50;3.63;;;2.93;;
6983;SDS011;3532;51.118;7.210;2023-08-31T14:39:15;5.83;;;2.97;;
6983;SDS011;3532;51.118;7.210;2023-08-31T14:41:43;3.27;;;2.50;;
6983;SDS011;3532;51.118;7.210;2023-08-31T14:44:08;3.43;;;2.57;;
6983;SDS011;3532;51.118;7.210;2023-08-31T14:46:33;6.60;;;2.90;;
6983;SDS011;3532;51.118;7.210;2023-08-31T14:48:58;4.03;;;2.60;;
6983;SDS011;3532;51.118;7.210;2023-08-31T14:51:24;3.60;;;2.47;;
6983;SDS011;3532;51.118;7.210;2023-08-31T14:53:49;4.57;;;2.63;;
6983;SDS011;3532;51.118;7.210;2023-08-31T14:56:14;6.77;;;3.00;;
6983;SDS011;3532;51.118;7.210;2023-08-31T14:58:40;4.03;;;2.77;;
6983;SDS011;3532;51.118;7.210;2023-08-31T15:01:05;6.40;;;2.83;;
6983;SDS011;3532;51.118;7.210;2023-08-31T15:03:31;3.43;;;2.63;;
6983;SDS011;3532;51.118;7.210;2023-08-31T15:05:56;4.43;;;2.93;;
6983;SDS011;3532;51.118;7.210;2023-08-31T15:08:22;4.47;;;3.10;;
6983;SDS011;3532;51.118;7.210;2023-08-31T15:11:00;3.10;;;2.73;;
6983;SDS011;3532;51.118;7.210;2023-08-31T15:13:26;5.87;;;3.47;;
6983;SDS011;3532;51.118;7.210;2023-08-31T15:15:51;4.43;;;2.93;;
6983;SDS011;3532;51.118;7.210;2023-08-31T15:18:16;5.90;;;3.20;;
6983;SDS011;3532;51.118;7.210;2023-08-31T15:20:42;4.70;;;3.03;;
6983;SDS011;3532;51.118;7.210;2023-08-31T15:23:07;5.63;;;2.93;;
6983;SDS011;3532;51.118;7.210;2023-08-31T15:25:33;4.43;;;2.77;;
6983;SDS011;3532;51.118;7.210;2023-08-31T15:27:58;3.80;;;3.00;;
6983;SDS011;3532;51.118;7.210;2023-08-31T15:30:23;6.00;;;2.97;;
6983;SDS011;3532;51.118;7.210;2023-08-31T15:32:49;4.13;;;2.83;;
6983;SDS011;3532;51.118;7.210;2023-08-31T15:35:14;4.23;;;2.77;;